Time,TemperatureF,DewpointF,PressureIn,WindDirection,WindDirectionDegrees,WindSpeedMPH,WindSpeedGustMPH,Humidity,HourlyPrecipIn,Conditions,Clouds,dailyrainin,SoftwareType,DateUTC
2013-12-03 00:02:00,36.1,24.0,29.64,SW,223,2.0,2.0,61,0.00,,CLR,0.00,VWS V14.00,2013-12-03 07:02:00,
2013-12-03 00:07:00,36.6,24.8,29.65,SW,229,3.0,3.0,62,0.00,,CLR,0.00,VWS V14.00,2013-12-03 07:07:00,
2013-12-03 00:12:00,37.1,24.9,29.65,SW,229,2.0,3.0,61,0.00,,CLR,0.00,VWS V14.00,2013-12-03 07:12:00,
2013-12-03 00:17:00,37.5,24.9,29.65,SSW,213,2.0,3.0,60,0.00,,CLR,0.00,VWS V14.00,2013-12-03 07:17:00,
2013-12-03 00:22:00,37.4,24.4,29.65,SSW,212,0.0,3.0,59,0.00,,CLR,0.00,VWS V14.00,2013-12-03 07:22:00,
2013-12-03 00:27:00,37.0,23.6,29.64,SSW,212,1.0,3.0,58,0.00,,CLR,0.00,VWS V14.00,2013-12-03 07:27:00,
2013-12-03 00:32:00,36.6,24.0,29.64,SSW,211,1.0,4.0,60,0.00,,CLR,0.00,VWS V14.00,2013-12-03 07:32:00,
2013-12-03 00:37:00,36.6,24.4,29.64,SSW,211,0.0,4.0,61,0.00,,CLR,0.00,VWS V14.00,2013-12-03 07:37:00,
2013-12-03 00:42:00,37.0,25.2,29.64,SW,225,2.0,4.0,62,0.00,,CLR,0.00,VWS V14.00,2013-12-03 07:42:00,
2013-12-03 00:47:00,37.5,24.9,29.64,SW,222,3.0,4.0,60,0.00,,CLR,0.00,VWS V14.00,2013-12-03 07:47:00,
2013-12-03 00:52:00,37.6,25.0,29.64,SW,222,0.0,4.0,60,0.00,,CLR,0.00,VWS V14.00,2013-12-03 07:52:00,
2013-12-03 00:57:00,37.9,25.3,29.64,SW,222,0.0,4.0,60,0.00,,CLR,0.00,VWS V14.00,2013-12-03 07:57:00,
2013-12-03 01:02:00,38.1,25.1,29.64,SW,222,0.0,0.0,59,0.00,,CLR,0.00,VWS V14.00,2013-12-03 08:02:00,
2013-12-03 01:07:00,38.0,25.0,29.64,SW,222,0.0,0.0,59,0.00,,CLR,0.00,VWS V14.00,2013-12-03 08:07:00,
2013-12-03 01:12:00,37.9,25.3,29.64,SW,222,0.0,0.0,60,0.00,,CLR,0.00,VWS V14.00,2013-12-03 08:12:00,
2013-12-03 01:17:00,38.0,25.4,29.64,SW,222,0.0,0.0,60,0.00,,CLR,0.00,VWS V14.00,2013-12-03 08:17:00,
2013-12-03 01:22:00,37.9,24.9,29.63,SW,222,0.0,0.0,59,0.00,,CLR,0.00,VWS V14.00,2013-12-03 08:22:00,
2013-12-03 01:27:00,37.8,25.2,29.63,SW,222,0.0,0.0,60,0.00,,CLR,0.00,VWS V14.00,2013-12-03 08:27:00,
2013-12-03 01:32:00,37.9,25.3,29.63,SW,222,0.0,0.0,60,0.00,,CLR,0.00,VWS V14.00,2013-12-03 08:32:00,
2013-12-03 01:37:00,37.4,24.4,29.63,SW,236,2.0,3.0,59,0.00,,CLR,0.00,VWS V14.00,2013-12-03 08:37:00,
2013-12-03 01:42:00,36.9,24.3,29.63,WSW,237,1.0,3.0,60,0.00,,CLR,0.00,VWS V14.00,2013-12-03 08:42:00,
2013-12-03 01:47:00,36.7,24.5,29.63,WSW,237,0.0,1.0,61,0.00,,CLR,0.00,VWS V14.00,2013-12-03 08:47:00,
2013-12-03 01:52:00,36.5,24.3,29.63,WSW,237,0.0,1.0,61,0.00,,CLR,0.00,VWS V14.00,2013-12-03 08:52:00,
2013-12-03 01:57:00,36.4,24.2,29.63,WSW,237,0.0,1.0,61,0.00,,CLR,0.00,VWS V14.00,2013-12-03 08:57:00,
2013-12-03 02:02:00,36.1,24.0,29.63,WSW,237,1.0,1.0,61,0.00,,CLR,0.00,VWS V14.00,2013-12-03 09:02:00,
2013-12-03 02:07:00,35.3,23.6,29.63,WSW,237,2.0,2.0,62,0.00,,CLR,0.00,VWS V14.00,2013-12-03 09:07:00,
2013-12-03 02:12:00,34.4,22.7,29.63,WSW,237,2.0,2.0,62,0.00,,CLR,0.00,VWS V14.00,2013-12-03 09:12:00,
2013-12-03 02:17:00,34.0,23.1,29.63,WSW,237,0.0,1.0,64,0.00,,CLR,0.00,VWS V14.00,2013-12-03 09:17:00,
2013-12-03 02:25:00,33.2,22.4,29.63,SW,234,0.0,3.0,64,0.00,,CLR,0.00,VWS V14.00,2013-12-03 09:25:00,
2013-12-03 02:30:00,32.5,21.7,29.63,SW,234,0.0,0.0,64,0.00,,CLR,0.00,VWS V14.00,2013-12-03 09:30:00,
2013-12-03 02:35:00,32.0,21.6,29.63,SW,234,0.0,0.0,65,0.00,,CLR,0.00,VWS V14.00,2013-12-03 09:35:00,
2013-12-03 02:40:00,31.7,22.0,29.64,SW,234,0.0,0.0,67,0.00,,CLR,0.00,VWS V14.00,2013-12-03 09:40:00,
2013-12-03 02:45:00,31.5,21.8,29.64,SW,234,0.0,0.0,67,0.00,,CLR,0.00,VWS V14.00,2013-12-03 09:45:00,
2013-12-03 03:06:00,30.1,21.2,29.62,SW,228,3.0,3.0,69,0.00,,CLR,0.00,VWS V14.00,2013-12-03 10:06:00,
2013-12-03 03:11:00,29.6,20.7,29.62,SW,223,2.0,3.0,69,0.00,,CLR,0.00,VWS V14.00,2013-12-03 10:11:00,
2013-12-03 03:16:00,29.7,21.5,29.61,SW,234,2.0,2.0,71,0.00,,CLR,0.00,VWS V14.00,2013-12-03 10:16:00,
2013-12-03 03:23:00,29.3,20.7,29.61,SW,229,2.0,3.0,70,0.00,,CLR,0.00,VWS V14.00,2013-12-03 10:23:00,
2013-12-03 03:28:00,28.9,20.7,29.61,SW,227,2.0,3.0,71,0.00,,CLR,0.00,VWS V14.00,2013-12-03 10:28:00,
2013-12-03 03:33:00,29.0,20.8,29.61,SW,232,2.0,3.0,71,0.00,,CLR,0.00,VWS V14.00,2013-12-03 10:33:00,
2013-12-03 03:38:00,29.1,20.5,29.61,SW,229,2.0,3.0,70,0.00,,CLR,0.00,VWS V14.00,2013-12-03 10:38:00,
2013-12-03 03:43:00,28.8,20.3,29.61,SW,229,2.0,3.0,70,0.00,,CLR,0.00,VWS V14.00,2013-12-03 10:43:00,
2013-12-03 03:48:00,28.5,20.0,29.60,SW,229,0.0,1.0,70,0.00,,CLR,0.00,VWS V14.00,2013-12-03 10:48:00,
2013-12-03 03:53:00,28.3,20.4,29.60,SW,227,2.0,2.0,72,0.00,,CLR,0.00,VWS V14.00,2013-12-03 10:53:00,
2013-12-03 03:58:00,27.8,19.6,29.60,SSW,209,3.0,3.0,71,0.00,,CLR,0.00,VWS V14.00,2013-12-03 10:58:00,
2013-12-03 04:03:00,26.9,18.8,29.60,SSW,205,3.0,3.0,71,0.00,,CLR,0.00,VWS V14.00,2013-12-03 11:03:00,
2013-12-03 04:08:00,26.3,18.8,29.60,SW,223,3.0,4.0,73,0.00,,CLR,0.00,VWS V14.00,2013-12-03 11:08:00,
2013-12-03 04:13:00,26.2,19.4,29.60,SW,215,3.0,4.0,75,0.00,,CLR,0.00,VWS V14.00,2013-12-03 11:13:00,
2013-12-03 04:18:00,25.9,18.8,29.60,SSW,194,2.0,3.0,74,0.00,,CLR,0.00,VWS V14.00,2013-12-03 11:18:00,
2013-12-03 04:23:00,25.7,18.9,29.60,SSW,196,0.0,3.0,75,0.00,,CLR,0.00,VWS V14.00,2013-12-03 11:23:00,
2013-12-03 04:28:00,25.8,19.3,29.60,SSW,196,0.0,3.0,76,0.00,,CLR,0.00,VWS V14.00,2013-12-03 11:28:00,
2013-12-03 04:33:00,26.1,19.6,29.60,SSW,196,0.0,0.0,76,0.00,,CLR,0.00,VWS V14.00,2013-12-03 11:33:00,
2013-12-03 04:38:00,26.6,20.4,29.60,SSW,196,0.0,0.0,77,0.00,,CLR,0.00,VWS V14.00,2013-12-03 11:38:00,
2013-12-03 04:43:00,27.0,20.5,29.60,SSW,196,0.0,0.0,76,0.00,,CLR,0.00,VWS V14.00,2013-12-03 11:43:00,
2013-12-03 04:48:00,27.2,20.3,29.60,SSW,196,0.0,0.0,75,0.00,,CLR,0.00,VWS V14.00,2013-12-03 11:48:00,
2013-12-03 04:53:00,27.0,19.8,29.59,SSW,196,0.0,0.0,74,0.00,,CLR,0.00,VWS V14.00,2013-12-03 11:53:00,
2013-12-03 04:58:00,27.0,20.1,29.59,SSW,197,0.0,0.0,75,0.00,,CLR,0.00,VWS V14.00,2013-12-03 11:58:00,
2013-12-03 05:03:00,27.0,19.8,29.59,SSW,196,0.0,0.0,74,0.00,,CLR,0.00,VWS V14.00,2013-12-03 12:03:00,
2013-12-03 05:08:00,26.8,19.6,29.59,SSW,196,0.0,0.0,74,0.00,,CLR,0.00,VWS V14.00,2013-12-03 12:08:00,
2013-12-03 05:13:00,26.5,19.4,29.59,SSW,196,1.0,2.0,74,0.00,,CLR,0.00,VWS V14.00,2013-12-03 12:13:00,
2013-12-03 05:18:00,26.0,18.9,29.59,SSW,210,2.0,3.0,74,0.00,,CLR,0.00,VWS V14.00,2013-12-03 12:18:00,
2013-12-03 05:23:00,25.6,18.8,29.59,SSW,213,3.0,3.0,75,0.00,,CLR,0.00,VWS V14.00,2013-12-03 12:23:00,
2013-12-03 05:28:00,25.3,18.5,29.59,SSW,213,0.0,3.0,75,0.00,,CLR,0.00,VWS V14.00,2013-12-03 12:28:00,
2013-12-03 05:33:00,25.2,18.7,29.59,SSW,213,0.0,1.0,76,0.00,,CLR,0.00,VWS V14.00,2013-12-03 12:33:00,
2013-12-03 05:38:00,25.1,18.6,29.59,SSW,213,0.0,1.0,76,0.00,,CLR,0.00,VWS V14.00,2013-12-03 12:38:00,
2013-12-03 05:43:00,25.3,19.1,29.59,SSW,213,0.0,1.0,77,0.00,,CLR,0.00,VWS V14.00,2013-12-03 12:43:00,
2013-12-03 05:48:00,25.7,19.8,29.59,SSW,213,0.0,0.0,78,0.00,,CLR,0.00,VWS V14.00,2013-12-03 12:48:00,
2013-12-03 05:53:00,25.8,19.3,29.59,SSW,213,0.0,0.0,76,0.00,,CLR,0.00,VWS V14.00,2013-12-03 12:53:00,
2013-12-03 05:58:00,26.1,19.9,29.59,SSW,213,0.0,0.0,77,0.00,,CLR,0.00,VWS V14.00,2013-12-03 12:58:00,
2013-12-03 06:03:00,26.2,20.0,29.59,SW,218,1.0,2.0,77,0.00,,CLR,0.00,VWS V14.00,2013-12-03 13:03:00,
2013-12-03 06:08:00,26.9,21.0,29.60,WSW,242,3.0,3.0,78,0.00,,CLR,0.00,VWS V14.00,2013-12-03 13:08:00,
2013-12-03 06:13:00,26.9,19.7,29.60,WSW,244,0.0,4.0,74,0.00,,CLR,0.00,VWS V14.00,2013-12-03 13:13:00,
2013-12-03 06:18:00,26.2,18.7,29.60,WSW,246,1.0,1.0,73,0.00,,CLR,0.00,VWS V14.00,2013-12-03 13:18:00,
2013-12-03 06:23:00,26.5,20.3,29.61,SW,216,2.0,3.0,77,0.00,,CLR,0.00,VWS V14.00,2013-12-03 13:23:00,
2013-12-03 06:28:00,26.4,19.9,29.60,SW,230,0.0,3.0,76,0.00,,CLR,0.00,VWS V14.00,2013-12-03 13:28:00,
2013-12-03 06:33:00,26.3,19.5,29.60,SW,234,1.0,2.0,75,0.00,,CLR,0.00,VWS V14.00,2013-12-03 13:33:00,
2013-12-03 06:38:00,27.4,22.0,29.60,SW,232,3.0,4.0,80,0.00,,CLR,0.00,VWS V14.00,2013-12-03 13:38:00,
2013-12-03 06:43:00,28.5,21.9,29.60,WSW,239,1.0,4.0,76,0.00,,CLR,0.00,VWS V14.00,2013-12-03 13:43:00,
2013-12-03 06:48:00,28.8,22.2,29.60,WSW,237,3.0,4.0,76,0.00,,CLR,0.00,VWS V14.00,2013-12-03 13:48:00,
2013-12-03 06:53:00,29.8,23.5,29.60,SW,222,5.0,5.0,77,0.00,,CLR,0.00,VWS V14.00,2013-12-03 13:53:00,
2013-12-03 06:58:00,30.7,23.1,29.61,SSW,213,0.0,6.0,73,0.00,,CLR,0.00,VWS V14.00,2013-12-03 13:58:00,
2013-12-03 07:03:00,30.1,20.8,29.61,SSW,213,0.0,0.0,68,0.00,,CLR,0.00,VWS V14.00,2013-12-03 14:03:00,
2013-12-03 07:08:00,30.0,22.4,29.61,SSW,213,0.0,2.0,73,0.00,,CLR,0.00,VWS V14.00,2013-12-03 14:08:00,
2013-12-03 07:13:00,29.9,21.7,29.60,SSW,213,0.0,2.0,71,0.00,,CLR,0.00,VWS V14.00,2013-12-03 14:13:00,
2013-12-03 07:18:00,30.1,22.8,29.60,SSW,213,1.0,1.0,74,0.00,,CLR,0.00,VWS V14.00,2013-12-03 14:18:00,
2013-12-03 07:23:00,30.7,24.0,29.61,SW,215,3.0,3.0,76,0.00,,CLR,0.00,VWS V14.00,2013-12-03 14:23:00,
2013-12-03 07:28:00,32.1,25.4,29.61,SSW,201,4.0,4.0,76,0.00,,CLR,0.00,VWS V14.00,2013-12-03 14:28:00,
2013-12-03 07:33:00,32.4,24.7,29.61,SSW,198,3.0,5.0,73,0.00,,CLR,0.00,VWS V14.00,2013-12-03 14:33:00,
2013-12-03 07:38:00,31.7,23.0,29.61,South,186,3.0,5.0,70,0.00,,CLR,0.00,VWS V14.00,2013-12-03 14:38:00,
2013-12-03 07:43:00,31.2,22.2,29.61,South,182,3.0,5.0,69,0.00,,CLR,0.00,VWS V14.00,2013-12-03 14:43:00,
2013-12-03 07:48:00,31.5,24.2,29.60,South,179,4.0,5.0,74,0.00,,CLR,0.00,VWS V14.00,2013-12-03 14:48:00,
2013-12-03 07:53:00,33.0,26.6,29.60,South,183,7.0,9.0,77,0.00,,CLR,0.00,VWS V14.00,2013-12-03 14:53:00,
2013-12-03 07:58:00,36.0,28.9,29.59,SSW,192,10.0,11.0,75,0.00,,CLR,0.00,VWS V14.00,2013-12-03 14:58:00,
2013-12-03 08:03:00,37.9,29.0,29.59,SSW,205,6.0,12.0,70,0.00,,CLR,0.00,VWS V14.00,2013-12-03 15:03:00,
2013-12-03 08:08:00,39.4,29.4,29.59,SSW,202,5.0,12.0,67,0.00,,CLR,0.00,VWS V14.00,2013-12-03 15:08:00,
2013-12-03 08:13:00,40.8,29.6,29.59,SW,218,6.0,12.0,64,0.00,,CLR,0.00,VWS V14.00,2013-12-03 15:13:00,
2013-12-03 08:18:00,42.1,30.0,29.59,SSW,202,8.0,10.0,62,0.00,,CLR,0.00,VWS V14.00,2013-12-03 15:18:00,
2013-12-03 08:23:00,43.3,30.4,29.59,South,190,6.0,10.0,60,0.00,,CLR,0.00,VWS V14.00,2013-12-03 15:23:00,
2013-12-03 08:28:00,44.4,30.6,29.59,South,184,6.0,11.0,58,0.00,,CLR,0.00,VWS V14.00,2013-12-03 15:28:00,
2013-12-03 08:33:00,45.4,30.6,29.58,SSE,166,3.0,9.0,56,0.00,,CLR,0.00,VWS V14.00,2013-12-03 15:33:00,
2013-12-03 08:38:00,46.4,31.6,29.59,South,175,6.0,9.0,56,0.00,,CLR,0.00,VWS V14.00,2013-12-03 15:38:00,
2013-12-03 08:43:00,47.9,32.1,29.58,South,174,7.0,12.0,54,0.00,,CLR,0.00,VWS V14.00,2013-12-03 15:43:00,
2013-12-03 08:48:00,49.3,32.4,29.59,SSE,165,9.0,13.0,52,0.00,,CLR,0.00,VWS V14.00,2013-12-03 15:48:00,
2013-12-03 08:53:00,50.7,32.8,29.58,SSE,163,7.0,13.0,50,0.00,,CLR,0.00,VWS V14.00,2013-12-03 15:53:00,
2013-12-03 08:58:00,51.7,32.7,29.58,SE,146,13.0,15.0,48,0.00,,CLR,0.00,VWS V14.00,2013-12-03 15:58:00,
2013-12-03 09:03:00,52.3,32.7,29.58,SE,144,8.0,16.0,47,0.00,,CLR,0.00,VWS V14.00,2013-12-03 16:03:00,
2013-12-03 09:08:00,52.7,33.0,29.58,SE,144,11.0,16.0,47,0.00,,CLR,0.00,VWS V14.00,2013-12-03 16:08:00,
2013-12-03 09:13:00,53.0,32.2,29.58,SSE,159,10.0,17.0,45,0.00,,CLR,0.00,VWS V14.00,2013-12-03 16:13:00,
2013-12-03 09:18:00,53.0,32.2,29.59,SSE,157,5.0,10.0,45,0.00,,CLR,0.00,VWS V14.00,2013-12-03 16:18:00,
2013-12-03 09:23:00,53.3,33.1,29.59,SE,142,15.0,17.0,46,0.00,,CLR,0.00,VWS V14.00,2013-12-03 16:23:00,
2013-12-03 09:28:00,53.6,32.8,29.59,SE,142,10.0,17.0,45,0.00,,CLR,0.00,VWS V14.00,2013-12-03 16:28:00,
2013-12-03 09:33:00,53.6,32.8,29.59,SSE,151,6.0,14.0,45,0.00,,CLR,0.00,VWS V14.00,2013-12-03 16:33:00,
2013-12-03 09:38:00,53.7,32.9,29.60,SSE,167,8.0,14.0,45,0.00,,CLR,0.00,VWS V14.00,2013-12-03 16:38:00,
2013-12-03 09:43:00,53.7,32.9,29.60,SSE,153,13.0,14.0,45,0.00,,CLR,0.00,VWS V14.00,2013-12-03 16:43:00,
2013-12-03 09:48:00,53.7,32.9,29.60,SSE,155,3.0,10.0,45,0.00,,CLR,0.00,VWS V14.00,2013-12-03 16:48:00,
2013-12-03 09:53:00,54.7,33.8,29.61,SE,146,13.0,13.0,45,0.00,,CLR,0.00,VWS V14.00,2013-12-03 16:53:00,
2013-12-03 09:58:00,55.6,34.0,29.61,South,169,6.0,13.0,44,0.00,,CLR,0.00,VWS V14.00,2013-12-03 16:58:00,
2013-12-03 10:03:00,56.2,34.0,29.61,South,175,10.0,13.0,43,0.00,,CLR,0.00,VWS V14.00,2013-12-03 17:03:00,
2013-12-03 10:08:00,56.3,34.1,29.61,South,177,13.0,14.0,43,0.00,,CLR,0.00,VWS V14.00,2013-12-03 17:08:00,
2013-12-03 10:13:00,56.6,32.6,29.61,SSE,165,11.0,17.0,40,0.00,,CLR,0.00,VWS V14.00,2013-12-03 17:13:00,
2013-12-03 10:18:00,56.6,32.0,29.61,South,175,15.0,20.0,39,0.00,,CLR,0.00,VWS V14.00,2013-12-03 17:18:00,
2013-12-03 10:23:00,56.4,31.8,29.61,SSE,167,14.0,20.0,39,0.00,,CLR,0.00,VWS V14.00,2013-12-03 17:23:00,
2013-12-03 10:28:00,56.2,32.2,29.60,SSE,157,13.0,20.0,40,0.00,,CLR,0.00,VWS V14.00,2013-12-03 17:28:00,
2013-12-03 10:33:00,56.2,32.2,29.60,SSE,148,17.0,18.0,40,0.00,,CLR,0.00,VWS V14.00,2013-12-03 17:33:00,
2013-12-03 10:38:00,57.0,31.7,29.60,SSE,166,19.0,19.0,38,0.00,,CLR,0.00,VWS V14.00,2013-12-03 17:38:00,
2013-12-03 10:43:00,56.5,31.2,29.60,SSE,148,14.0,19.0,38,0.00,,CLR,0.00,VWS V14.00,2013-12-03 17:43:00,
2013-12-03 10:48:00,57.0,31.7,29.59,SE,143,12.0,19.0,38,0.00,,CLR,0.00,VWS V14.00,2013-12-03 17:48:00,
2013-12-03 10:53:00,56.8,30.8,29.58,SSE,149,18.0,19.0,37,0.00,,CLR,0.00,VWS V14.00,2013-12-03 17:53:00,
2013-12-03 10:58:00,57.1,31.8,29.58,SSE,155,14.0,20.0,38,0.00,,CLR,0.00,VWS V14.00,2013-12-03 17:58:00,
2013-12-03 11:03:00,57.5,31.5,29.58,SSE,155,16.0,20.0,37,0.00,,CLR,0.00,VWS V14.00,2013-12-03 18:03:00,
2013-12-03 11:08:00,58.1,31.3,29.58,SE,142,17.0,20.0,36,0.00,,CLR,0.00,VWS V14.00,2013-12-03 18:08:00,
2013-12-03 11:13:00,58.2,31.4,29.57,SE,145,20.0,21.0,36,0.00,,CLR,0.00,VWS V14.00,2013-12-03 18:13:00,
2013-12-03 11:18:00,58.5,31.7,29.57,SSE,158,17.0,22.0,36,0.00,,CLR,0.00,VWS V14.00,2013-12-03 18:18:00,
2013-12-03 11:23:00,58.6,31.0,29.57,SSE,148,16.0,22.0,35,0.00,,CLR,0.00,VWS V14.00,2013-12-03 18:23:00,
2013-12-03 11:28:00,59.0,31.4,29.56,SSE,159,16.0,24.0,35,0.00,,CLR,0.00,VWS V14.00,2013-12-03 18:28:00,
2013-12-03 11:33:00,59.6,31.2,29.56,South,171,18.0,23.0,34,0.00,,CLR,0.00,VWS V14.00,2013-12-03 18:33:00,
2013-12-03 11:38:00,59.7,31.3,29.56,SSE,157,20.0,23.0,34,0.00,,CLR,0.00,VWS V14.00,2013-12-03 18:38:00,
2013-12-03 11:43:00,60.5,32.7,29.56,SE,139,15.0,23.0,35,0.00,,CLR,0.00,VWS V14.00,2013-12-03 18:43:00,
2013-12-03 11:48:00,61.0,31.7,29.55,SE,142,20.0,21.0,33,0.00,,CLR,0.00,VWS V14.00,2013-12-03 18:48:00,
2013-12-03 11:53:00,61.4,32.8,29.55,SE,135,19.0,22.0,34,0.00,,CLR,0.00,VWS V14.00,2013-12-03 18:53:00,
2013-12-03 11:58:00,61.5,32.2,29.55,ESE,117,17.0,24.0,33,0.00,,CLR,0.00,VWS V14.00,2013-12-03 18:58:00,
2013-12-03 12:03:00,61.7,32.3,29.55,SE,128,22.0,25.0,33,0.00,,CLR,0.00,VWS V14.00,2013-12-03 19:03:00,
2013-12-03 12:08:00,61.2,31.9,29.54,SE,138,20.0,25.0,33,0.00,,CLR,0.00,VWS V14.00,2013-12-03 19:08:00,
2013-12-03 12:13:00,60.8,31.5,29.54,SSE,152,22.0,25.0,33,0.00,,CLR,0.00,VWS V14.00,2013-12-03 19:13:00,
2013-12-03 12:18:00,61.0,31.7,29.54,SE,132,20.0,25.0,33,0.00,,CLR,0.00,VWS V14.00,2013-12-03 19:18:00,
2013-12-03 12:23:00,61.1,31.8,29.54,ESE,118,21.0,25.0,33,0.00,,CLR,0.00,VWS V14.00,2013-12-03 19:23:00,
2013-12-03 12:27:00,60.9,32.4,29.54,SE,134,18.0,25.0,34,0.00,,CLR,0.00,VWS V14.00,2013-12-03 19:27:00,
2013-12-03 12:32:00,60.9,31.6,29.54,SE,132,18.0,21.0,33,0.00,,CLR,0.00,VWS V14.00,2013-12-03 19:32:00,
2013-12-03 12:37:00,60.6,32.1,29.53,SE,126,16.0,21.0,34,0.00,,CLR,0.00,VWS V14.00,2013-12-03 19:37:00,
2013-12-03 12:42:00,60.7,31.5,29.53,SE,129,18.0,21.0,33,0.00,,CLR,0.00,VWS V14.00,2013-12-03 19:42:00,
2013-12-03 12:47:00,60.9,32.4,29.53,SE,127,19.0,20.0,34,0.00,,CLR,0.00,VWS V14.00,2013-12-03 19:47:00,
2013-12-03 12:52:00,61.1,31.8,29.52,SE,130,17.0,23.0,33,0.00,,CLR,0.00,VWS V14.00,2013-12-03 19:52:00,
2013-12-03 12:57:00,61.5,32.2,29.52,SE,143,18.0,23.0,33,0.00,,CLR,0.00,VWS V14.00,2013-12-03 19:57:00,
2013-12-03 13:02:00,61.6,31.5,29.51,ESE,122,15.0,21.0,32,0.00,,CLR,0.00,VWS V14.00,2013-12-03 20:02:00,
2013-12-03 13:07:00,61.7,31.6,29.51,ESE,119,22.0,23.0,32,0.00,,CLR,0.00,VWS V14.00,2013-12-03 20:07:00,
2013-12-03 13:12:00,61.4,31.3,29.51,SE,127,19.0,27.0,32,0.00,,CLR,0.00,VWS V14.00,2013-12-03 20:12:00,
2013-12-03 13:17:00,61.2,31.1,29.51,SE,129,20.0,23.0,32,0.00,,CLR,0.00,VWS V14.00,2013-12-03 20:17:00,
2013-12-03 13:22:00,61.5,31.4,29.51,SE,141,20.0,23.0,32,0.00,,CLR,0.00,VWS V14.00,2013-12-03 20:22:00,
2013-12-03 13:27:00,61.6,31.5,29.51,ESE,118,18.0,26.0,32,0.00,,CLR,0.00,VWS V14.00,2013-12-03 20:27:00,
2013-12-03 13:32:00,61.5,31.4,29.51,SSE,148,16.0,22.0,32,0.00,,CLR,0.00,VWS V14.00,2013-12-03 20:32:00,
2013-12-03 13:37:00,61.4,30.5,29.51,SE,131,18.0,25.0,31,0.00,,CLR,0.00,VWS V14.00,2013-12-03 20:37:00,
2013-12-03 13:42:00,60.9,30.9,29.50,ESE,123,15.0,25.0,32,0.00,,CLR,0.00,VWS V14.00,2013-12-03 20:42:00,
2013-12-03 13:47:00,60.6,30.6,29.50,SE,134,18.0,18.0,32,0.00,,CLR,0.00,VWS V14.00,2013-12-03 20:47:00,
2013-12-03 13:52:00,60.4,31.2,29.50,SE,137,18.0,21.0,33,0.00,,CLR,0.00,VWS V14.00,2013-12-03 20:52:00,
2013-12-03 13:57:00,60.0,30.8,29.50,SE,134,15.0,21.0,33,0.00,,CLR,0.00,VWS V14.00,2013-12-03 20:57:00,
2013-12-03 14:02:00,59.8,30.7,29.50,SE,133,15.0,19.0,33,0.00,,CLR,0.00,VWS V14.00,2013-12-03 21:02:00,
2013-12-03 14:07:00,59.7,31.3,29.51,SE,146,11.0,19.0,34,0.00,,CLR,0.00,VWS V14.00,2013-12-03 21:07:00,
2013-12-03 14:12:00,59.6,31.2,29.51,SE,134,15.0,19.0,34,0.00,,CLR,0.00,VWS V14.00,2013-12-03 21:12:00,
2013-12-03 14:17:00,59.5,31.1,29.51,SE,133,11.0,16.0,34,0.00,,CLR,0.00,VWS V14.00,2013-12-03 21:17:00,
2013-12-03 14:22:00,59.4,31.0,29.51,SE,139,14.0,17.0,34,0.00,,CLR,0.00,VWS V14.00,2013-12-03 21:22:00,
2013-12-03 14:27:00,59.3,31.0,29.51,SE,138,10.0,17.0,34,0.00,,CLR,0.00,VWS V14.00,2013-12-03 21:27:00,
2013-12-03 14:32:00,59.2,30.9,29.51,ESE,113,6.0,14.0,34,0.00,,CLR,0.00,VWS V14.00,2013-12-03 21:32:00,
2013-12-03 14:37:00,59.0,31.4,29.52,ESE,102,8.0,14.0,35,0.00,,CLR,0.00,VWS V14.00,2013-12-03 21:37:00,
2013-12-03 14:42:00,58.5,32.3,29.52,NE,44,16.0,24.0,37,0.00,,CLR,0.00,VWS V14.00,2013-12-03 21:42:00,
2013-12-03 14:47:00,55.1,31.8,29.53,NE,34,19.0,24.0,41,0.00,,CLR,0.00,VWS V14.00,2013-12-03 21:47:00,
2013-12-03 14:52:00,52.8,32.1,29.54,NE,39,14.0,24.0,45,0.00,,CLR,0.00,VWS V14.00,2013-12-03 21:52:00,
2013-12-03 14:57:00,51.2,31.7,29.54,NE,46,21.0,24.0,47,0.00,,CLR,0.00,VWS V14.00,2013-12-03 21:57:00,
2013-12-03 15:02:00,50.5,32.1,29.55,NNE,30,19.0,23.0,49,0.00,,CLR,0.00,VWS V14.00,2013-12-03 22:02:00,
2013-12-03 15:07:00,49.7,32.3,29.55,NE,42,23.0,23.0,51,0.00,,CLR,0.00,VWS V14.00,2013-12-03 22:07:00,
2013-12-03 15:12:00,49.2,32.3,29.56,NE,41,19.0,23.0,52,0.00,,CLR,0.00,VWS V14.00,2013-12-03 22:12:00,
2013-12-03 15:17:00,48.6,32.3,29.56,NE,35,22.0,25.0,53,0.00,,CLR,0.00,VWS V14.00,2013-12-03 22:17:00,
2013-12-03 15:22:00,47.9,32.1,29.57,NNE,33,24.0,27.0,54,0.00,,CLR,0.00,VWS V14.00,2013-12-03 22:22:00,
2013-12-03 15:27:00,47.3,32.0,29.58,NNE,19,20.0,29.0,55,0.00,,CLR,0.00,VWS V14.00,2013-12-03 22:27:00,
2013-12-03 15:32:00,46.3,31.5,29.58,NNE,30,21.0,28.0,56,0.00,,CLR,0.00,VWS V14.00,2013-12-03 22:32:00,
2013-12-03 15:37:00,45.0,31.1,29.58,NNE,22,24.0,29.0,58,0.00,,CLR,0.00,VWS V14.00,2013-12-03 22:37:00,
2013-12-03 15:42:00,44.0,30.6,29.59,NNE,31,18.0,29.0,59,0.00,,CLR,0.00,VWS V14.00,2013-12-03 22:42:00,
2013-12-03 15:47:00,42.9,30.4,29.60,NNE,31,22.0,28.0,61,0.00,,CLR,0.00,VWS V14.00,2013-12-03 22:47:00,
2013-12-03 15:52:00,41.8,30.1,29.60,NE,36,20.0,28.0,63,0.00,,CLR,0.00,VWS V14.00,2013-12-03 22:52:00,
2013-12-03 15:57:00,41.1,29.9,29.60,NNE,32,19.0,28.0,64,0.00,,CLR,0.00,VWS V14.00,2013-12-03 22:57:00,
2013-12-03 16:02:00,40.5,29.7,29.60,NNE,24,24.0,27.0,65,0.00,,CLR,0.00,VWS V14.00,2013-12-03 23:02:00,
2013-12-03 16:07:00,39.7,29.7,29.61,NNE,22,21.0,27.0,67,0.00,,CLR,0.00,VWS V14.00,2013-12-03 23:07:00,
2013-12-03 16:12:00,38.8,29.5,29.62,NNE,17,27.0,27.0,69,0.00,,CLR,0.00,VWS V14.00,2013-12-03 23:12:00,
2013-12-03 16:17:00,37.9,29.4,29.62,NNE,18,19.0,28.0,71,0.00,,CLR,0.00,VWS V14.00,2013-12-03 23:17:00,
2013-12-03 16:22:00,37.1,29.3,29.62,NNE,17,22.0,29.0,73,0.00,,CLR,0.00,VWS V14.00,2013-12-03 23:22:00,
2013-12-03 16:27:00,36.6,29.1,29.62,NNE,29,25.0,29.0,74,0.00,,CLR,0.00,VWS V14.00,2013-12-03 23:27:00,
2013-12-03 16:32:00,36.3,29.5,29.63,NNE,18,24.0,26.0,76,0.00,,CLR,0.00,VWS V14.00,2013-12-03 23:32:00,
2013-12-03 16:37:00,36.0,29.2,29.63,NNE,26,17.0,27.0,76,0.00,,CLR,0.00,VWS V14.00,2013-12-03 23:37:00,
2013-12-03 16:42:00,35.6,28.8,29.63,NNE,21,21.0,27.0,76,0.00,,CLR,0.00,VWS V14.00,2013-12-03 23:42:00,
2013-12-03 16:47:00,35.0,28.5,29.63,NNE,12,21.0,29.0,77,0.00,,CLR,0.00,VWS V14.00,2013-12-03 23:47:00,
2013-12-03 16:52:00,34.6,28.8,29.64,NNE,26,22.0,29.0,79,0.00,,CLR,0.00,VWS V14.00,2013-12-03 23:52:00,
2013-12-03 16:57:00,34.4,28.6,29.65,NNE,17,19.0,29.0,79,0.00,,CLR,0.00,VWS V14.00,2013-12-03 23:57:00,
2013-12-03 17:02:00,34.0,28.8,29.65,NNE,14,23.0,27.0,81,0.00,,BKN012,0.00,VWS V14.00,2013-12-04 00:02:00,
2013-12-03 17:07:00,33.7,28.5,29.65,NNE,29,20.0,28.0,81,0.00,,BKN012,0.00,VWS V14.00,2013-12-04 00:07:00,
2013-12-03 17:12:00,33.4,28.5,29.65,NNE,30,23.0,30.0,82,0.00,,BKN012,0.00,VWS V14.00,2013-12-04 00:12:00,
2013-12-03 17:17:00,33.1,28.5,29.65,NNE,32,22.0,26.0,83,0.00,,BKN012,0.00,VWS V14.00,2013-12-04 00:17:00,
2013-12-03 17:22:00,33.0,28.7,29.65,NNE,22,23.0,27.0,84,0.00,,BKN012,0.00,VWS V14.00,2013-12-04 00:22:00,
2013-12-03 17:27:00,32.9,28.6,29.65,NNE,24,20.0,27.0,84,0.00,,BKN012,0.00,VWS V14.00,2013-12-04 00:27:00,
2013-12-03 17:32:00,32.7,28.4,29.67,NNE,25,20.0,27.0,84,0.00,,BKN012,0.00,VWS V14.00,2013-12-04 00:32:00,
2013-12-03 17:37:00,32.4,28.4,29.67,NNE,17,23.0,27.0,85,0.00,,BKN012,0.00,VWS V14.00,2013-12-04 00:37:00,
2013-12-03 17:42:00,32.0,28.0,29.68,NNE,25,21.0,28.0,85,0.00,,OVC009,0.00,VWS V14.00,2013-12-04 00:42:00,
2013-12-03 17:47:00,31.6,27.6,29.69,NNE,15,22.0,29.0,85,0.00,,OVC009,0.00,VWS V14.00,2013-12-04 00:47:00,
2013-12-03 17:52:00,31.4,27.7,29.70,NNE,17,18.0,29.0,86,0.00,,OVC009,0.00,VWS V14.00,2013-12-04 00:52:00,
2013-12-03 17:57:00,31.3,27.6,29.71,NNE,13,22.0,29.0,86,0.00,,OVC009,0.00,VWS V14.00,2013-12-04 00:57:00,
2013-12-03 18:02:00,31.1,27.4,29.71,North,355,22.0,23.0,86,0.00,,OVC006,0.00,VWS V14.00,2013-12-04 01:02:00,
2013-12-03 18:07:00,30.7,27.0,29.72,North,5,21.0,27.0,86,0.00,,OVC006,0.00,VWS V14.00,2013-12-04 01:07:00,
2013-12-03 18:12:00,30.5,26.8,29.73,North,355,14.0,27.0,86,0.00,,OVC006,0.00,VWS V14.00,2013-12-04 01:12:00,
2013-12-03 18:17:00,30.3,26.6,29.73,North,355,17.0,24.0,86,0.00,,OVC006,0.00,VWS V14.00,2013-12-04 01:17:00,
2013-12-03 18:22:00,30.2,26.5,29.74,NNE,15,13.0,24.0,86,0.00,,OVC006,0.00,VWS V14.00,2013-12-04 01:22:00,
2013-12-03 18:27:00,30.1,26.4,29.75,NNE,12,19.0,24.0,86,0.00,,OVC006,0.00,VWS V14.00,2013-12-04 01:27:00,
2013-12-03 18:32:00,29.9,26.0,29.74,North,5,26.0,26.0,85,0.00,,OVC006,0.00,VWS V14.00,2013-12-04 01:32:00,
2013-12-03 18:37:00,29.7,25.8,29.75,NNE,13,19.0,26.0,85,0.00,,OVC006,0.00,VWS V14.00,2013-12-04 01:37:00,
2013-12-03 18:42:00,29.5,25.6,29.75,North,5,14.0,26.0,85,0.00,,OVC006,0.00,VWS V14.00,2013-12-04 01:42:00,
2013-12-03 18:47:00,29.4,25.5,29.75,NNE,18,18.0,19.0,85,0.00,,OVC006,0.00,VWS V14.00,2013-12-04 01:47:00,
2013-12-03 18:52:00,29.3,25.1,29.75,North,5,14.0,20.0,84,0.00,,OVC006,0.00,VWS V14.00,2013-12-04 01:52:00,
2013-12-03 18:57:00,29.0,24.5,29.76,NNW,348,17.0,25.0,83,0.00,,OVC006,0.00,VWS V14.00,2013-12-04 01:57:00,
2013-12-03 19:02:00,28.8,24.0,29.76,North,351,18.0,21.0,82,0.00,,OVC008,0.00,VWS V14.00,2013-12-04 02:02:00,
2013-12-03 19:07:00,28.7,23.6,29.77,North,5,17.0,24.0,81,0.00,,OVC008,0.00,VWS V14.00,2013-12-04 02:07:00,
2013-12-03 19:12:00,28.5,23.4,29.77,North,360,17.0,24.0,81,0.00,,OVC008,0.00,VWS V14.00,2013-12-04 02:12:00,
2013-12-03 19:17:00,28.4,23.0,29.77,North,355,18.0,20.0,80,0.00,,OVC008,0.00,VWS V14.00,2013-12-04 02:17:00,
2013-12-03 19:22:00,28.3,22.9,29.76,North,355,19.0,20.0,80,0.00,,OVC008,0.00,VWS V14.00,2013-12-04 02:22:00,
2013-12-03 19:27:00,28.0,22.3,29.77,North,5,21.0,24.0,79,0.00,,OVC008,0.00,VWS V14.00,2013-12-04 02:27:00,
2013-12-03 19:32:00,27.7,21.8,29.77,North,360,16.0,22.0,78,0.00,,OVC008,0.00,VWS V14.00,2013-12-04 02:32:00,
2013-12-03 19:37:00,27.5,21.5,29.77,North,355,18.0,22.0,78,0.00,,OVC008,0.00,VWS V14.00,2013-12-04 02:37:00,
2013-12-03 19:42:00,27.4,21.5,29.78,NNW,348,26.0,26.0,78,0.00,,OVC010,0.00,VWS V14.00,2013-12-04 02:42:00,
2013-12-03 19:47:00,27.2,21.0,29.78,North,350,24.0,26.0,77,0.00,,OVC010,0.00,VWS V14.00,2013-12-04 02:47:00,
2013-12-03 19:52:00,27.1,20.9,29.78,North,355,14.0,26.0,77,0.00,,OVC010,0.00,VWS V14.00,2013-12-04 02:52:00,
2013-12-03 19:57:00,27.0,20.8,29.78,North,351,21.0,26.0,77,0.00,,OVC010,0.00,VWS V14.00,2013-12-04 02:57:00,
2013-12-03 20:02:00,26.9,20.7,29.78,North,360,20.0,25.0,77,0.00,,OVC014,0.00,VWS V14.00,2013-12-04 03:02:00,
2013-12-03 20:07:00,26.7,20.2,29.78,North,5,17.0,25.0,76,0.00,,OVC014,0.00,VWS V14.00,2013-12-04 03:07:00,
2013-12-03 20:12:00,26.5,20.0,29.78,North,355,18.0,29.0,76,0.00,,OVC014,0.00,VWS V14.00,2013-12-04 03:12:00,
2013-12-03 20:17:00,26.3,20.1,29.79,NNW,344,19.0,26.0,77,0.00,,OVC014,0.00,VWS V14.00,2013-12-04 03:17:00,
2013-12-03 20:22:00,26.2,20.0,29.79,North,355,19.0,26.0,77,0.00,,OVC015,0.00,VWS V14.00,2013-12-04 03:22:00,
2013-12-03 20:27:00,26.0,19.5,29.79,North,350,17.0,27.0,76,0.00,,OVC015,0.00,VWS V14.00,2013-12-04 03:27:00,
2013-12-03 20:32:00,25.8,19.3,29.79,North,351,23.0,23.0,76,0.00,,OVC015,0.00,VWS V14.00,2013-12-04 03:32:00,
2013-12-03 20:37:00,25.7,19.2,29.79,North,355,18.0,27.0,76,0.00,,OVC015,0.00,VWS V14.00,2013-12-04 03:37:00,
2013-12-03 20:42:00,25.6,19.1,29.79,North,351,21.0,27.0,76,0.00,,OVC015,0.00,VWS V14.00,2013-12-04 03:42:00,
2013-12-03 20:47:00,25.3,18.8,29.80,NNW,346,15.0,23.0,76,0.00,,OVC015,0.00,VWS V14.00,2013-12-04 03:47:00,
2013-12-03 20:52:00,25.2,18.4,29.81,NNW,347,23.0,26.0,75,0.00,,OVC015,0.00,VWS V14.00,2013-12-04 03:52:00,
2013-12-03 20:57:00,25.1,18.3,29.81,North,350,19.0,28.0,75,0.00,,OVC015,0.00,VWS V14.00,2013-12-04 03:57:00,
2013-12-03 21:02:00,25.1,18.3,29.81,North,355,19.0,25.0,75,0.00,,OVC015,0.00,VWS V14.00,2013-12-04 04:02:00,
2013-12-03 21:07:00,25.1,18.0,29.81,North,355,23.0,25.0,74,0.00,,OVC015,0.00,VWS V14.00,2013-12-04 04:07:00,
2013-12-03 21:12:00,25.1,18.0,29.81,NNW,336,18.0,25.0,74,0.00,,OVC015,0.00,VWS V14.00,2013-12-04 04:12:00,
2013-12-03 21:17:00,24.9,17.8,29.82,North,350,16.0,27.0,74,0.00,,OVC015,0.00,VWS V14.00,2013-12-04 04:17:00,
2013-12-03 21:22:00,24.9,17.8,29.82,NNW,346,19.0,27.0,74,0.00,,OVC015,0.00,VWS V14.00,2013-12-04 04:22:00,
2013-12-03 21:27:00,24.9,17.8,29.83,NNW,342,19.0,27.0,74,0.00,,OVC015,0.00,VWS V14.00,2013-12-04 04:27:00,
2013-12-03 21:32:00,24.8,17.7,29.83,NNW,344,20.0,27.0,74,0.00,,OVC015,0.00,VWS V14.00,2013-12-04 04:32:00,
2013-12-03 21:37:00,24.8,17.7,29.83,North,350,19.0,31.0,74,0.00,,OVC015,0.00,VWS V14.00,2013-12-04 04:37:00,
2013-12-03 21:42:00,24.7,17.6,29.83,North,349,21.0,31.0,74,0.00,,OVC015,0.00,VWS V14.00,2013-12-04 04:42:00,
2013-12-03 21:47:00,24.7,17.6,29.83,North,355,16.0,27.0,74,0.00,,OVC015,0.00,VWS V14.00,2013-12-04 04:47:00,
2013-12-03 21:52:00,24.7,17.6,29.83,North,349,16.0,27.0,74,0.00,,OVC015,0.00,VWS V14.00,2013-12-04 04:52:00,
2013-12-03 21:57:00,24.6,17.5,29.83,North,355,26.0,27.0,74,0.00,,OVC015,0.00,VWS V14.00,2013-12-04 04:57:00,
2013-12-03 22:01:00,24.6,17.8,29.83,North,351,20.0,26.0,75,0.00,,OVC018,0.00,VWS V14.00,2013-12-04 05:01:00,
2013-12-03 22:06:00,24.6,17.8,29.84,North,355,20.0,26.0,75,0.00,,OVC018,0.00,VWS V14.00,2013-12-04 05:06:00,
2013-12-03 22:11:00,24.6,17.8,29.83,NNW,348,19.0,26.0,75,0.00,,OVC018,0.00,VWS V14.00,2013-12-04 05:11:00,
2013-12-03 22:16:00,24.4,17.6,29.83,NNW,344,17.0,27.0,75,0.00,,OVC018,0.00,VWS V14.00,2013-12-04 05:16:00,
2013-12-03 22:21:00,24.3,17.5,29.83,North,355,21.0,27.0,75,0.00,,OVC018,0.00,VWS V14.00,2013-12-04 05:21:00,
2013-12-03 22:26:00,24.2,17.1,29.83,NNW,343,17.0,27.0,74,0.00,,OVC018,0.00,VWS V14.00,2013-12-04 05:26:00,
2013-12-03 22:31:00,23.8,17.0,29.83,North,355,19.0,27.0,75,0.00,,OVC018,0.00,VWS V14.00,2013-12-04 05:31:00,
2013-12-03 22:36:00,23.5,16.8,29.83,NNW,346,22.0,29.0,75,0.00,,OVC018,0.00,VWS V14.00,2013-12-04 05:36:00,
2013-12-03 22:41:00,23.1,16.7,29.82,NNW,348,25.0,30.0,76,0.00,,OVC018,0.00,VWS V14.00,2013-12-04 05:41:00,
2013-12-03 22:46:00,22.8,16.7,29.82,North,355,16.0,24.0,77,0.00,,OVC018,0.00,VWS V14.00,2013-12-04 05:46:00,
2013-12-03 22:51:00,22.7,16.6,29.83,North,350,29.0,32.0,77,0.00,,OVC018,0.00,VWS V14.00,2013-12-04 05:51:00,
2013-12-03 22:56:00,22.4,16.6,29.82,North,350,17.0,32.0,78,0.00,,OVC018,0.00,VWS V14.00,2013-12-04 05:56:00,
2013-12-03 23:01:00,22.2,16.4,29.83,NNW,348,19.0,31.0,78,0.00,,OVC015,0.00,VWS V14.00,2013-12-04 06:01:00,
2013-12-03 23:06:00,22.1,16.6,29.83,North,350,17.0,31.0,79,0.00,,OVC015,0.00,VWS V14.00,2013-12-04 06:06:00,
2013-12-03 23:11:00,22.0,16.5,29.83,North,11,20.0,31.0,79,0.00,,OVC015,0.00,VWS V14.00,2013-12-04 06:11:00,
2013-12-03 23:16:00,21.8,16.3,29.82,North,355,28.0,33.0,79,0.00,,OVC015,0.00,VWS V14.00,2013-12-04 06:16:00,
2013-12-03 23:21:00,21.7,16.2,29.82,North,360,15.0,33.0,79,0.00,,OVC015,0.00,VWS V14.00,2013-12-04 06:21:00,
2013-12-03 23:26:00,21.6,16.1,29.83,North,355,21.0,33.0,79,0.00,,OVC015,0.00,VWS V14.00,2013-12-04 06:26:00,
2013-12-03 23:31:00,21.4,15.9,29.83,NNW,348,20.0,25.0,79,0.00,,OVC015,0.00,VWS V14.00,2013-12-04 06:31:00,
2013-12-03 23:36:00,21.2,16.0,29.83,North,355,21.0,26.0,80,0.00,,OVC015,0.00,VWS V14.00,2013-12-04 06:36:00,
2013-12-03 23:41:00,21.2,16.0,29.84,North,360,21.0,26.0,80,0.00,,OVC015,0.00,VWS V14.00,2013-12-04 06:41:00,
2013-12-03 23:46:00,21.0,16.1,29.83,NNW,340,16.0,25.0,81,0.00,,OVC015,0.00,VWS V14.00,2013-12-04 06:46:00,
2013-12-03 23:51:00,20.8,15.9,29.83,North,355,28.0,28.0,81,0.00,,OVC015,0.00,VWS V14.00,2013-12-04 06:51:00,
2013-12-03 23:56:00,20.3,15.4,29.82,North,355,23.0,28.0,81,0.00,,OVC015,0.00,VWS V14.00,2013-12-04 06:56:00,